Time;durP1;ratioP1;P1;durP2;ratioP2;P2;SDS_P1;SDS_P2;PMS_P1;PMS_P2;Temp;Humidity;BMP_temperature;BMP_pressure;BME280_temperature;BME280_humidity;BME280_pressure;Samples;Min_cycle;Max_cycle;Signal;HPM_P1;HPM_P2
2023/01/18 00:01:02;;;;;;;23.10;15.93;;;1.80;99.90;;;;;;5114198;28;20187;-68
2023/01/18 00:03:32;;;;;;;27.00;16.47;;;1.80;99.90;;;;;;5114080;28;20665;-69
2023/01/18 00:06:00;;;;;;;26.27;16.10;;;1.80;99.90;;;;;;5113092;28;20167;-68
2023/01/18 00:08:27;;;;;;;29.20;16.60;;;1.80;99.90;;;;;;5113799;28;20168;-68
2023/01/18 00:10:52;;;;;;;24.90;16.07;;;1.80;99.90;;;;;;5114231;27;20160;-69
2023/01/18 00:13:18;;;;;;;24.00;15.13;;;1.70;99.90;;;;;;5113514;28;20178;-69
2023/01/18 00:15:43;;;;;;;29.40;17.07;;;1.80;99.90;;;;;;5114179;28;20593;-68
2023/01/18 00:18:09;;;;;;;24.57;17.03;;;1.90;99.90;;;;;;5113921;28;20171;-67
2023/01/18 00:20:35;;;;;;;22.97;15.07;;;1.70;99.90;;;;;;5113849;28;20260;-68
2023/01/18 00:23:01;;;;;;;21.50;14.67;;;1.70;99.90;;;;;;5113762;28;20171;-67
2023/01/18 00:25:27;;;;;;;21.33;13.73;;;1.70;99.90;;;;;;5112767;28;20183;-67
2023/01/18 00:27:54;;;;;;;27.53;15.70;;;1.70;99.90;;;;;;5113824;28;20577;-67
2023/01/18 00:30:25;;;;;;;22.37;13.23;;;1.60;99.90;;;;;;5113987;28;20202;-68
2023/01/18 00:32:56;;;;;;;24.47;14.87;;;1.60;99.90;;;;;;5113778;28;20175;-68
2023/01/18 00:35:22;;;;;;;26.93;17.73;;;1.60;99.90;;;;;;5113925;28;20182;-68
2023/01/18 00:37:50;;;;;;;25.87;15.60;;;1.50;99.90;;;;;;5113598;28;20171;-69
2023/01/18 00:40:16;;;;;;;30.67;18.07;;;1.40;99.90;;;;;;5113680;28;20202;-68
2023/01/18 00:45:26;;;;;;;31.90;19.57;;;1.20;99.90;;;;;;5113596;28;20265;-68
2023/01/18 00:47:53;;;;;;;27.07;17.50;;;1.30;99.90;;;;;;5113938;28;20222;-68
2023/01/18 00:50:19;;;;;;;30.33;18.40;;;1.20;99.90;;;;;;5113506;28;20654;-69
2023/01/18 00:52:46;;;;;;;25.20;17.93;;;1.20;99.90;;;;;;5113726;28;20178;-68
2023/01/18 00:55:12;;;;;;;28.33;18.43;;;1.20;99.90;;;;;;5113604;28;20250;-68
2023/01/18 00:57:38;;;;;;;29.53;18.20;;;1.10;99.90;;;;;;5113594;28;20171;-69
2023/01/18 01:00:05;;;;;;;30.13;19.50;;;1.10;99.90;;;;;;5113400;28;20214;-69
2023/01/18 01:02:30;;;;;;;31.90;19.53;;;1.10;99.90;;;;;;5113540;28;20207;-69
2023/01/18 01:07:40;;;;;;;29.83;17.83;;;1.10;99.90;;;;;;5113821;28;20210;-69
2023/01/18 01:10:07;;;;;;;35.00;18.40;;;1.00;99.90;;;;;;5113435;28;20171;-69
2023/01/18 01:26:14;;;;;;;26.03;16.90;;;1.00;99.90;;;;;;5117842;28;20171;-69
2023/01/18 01:28:43;;;;;;;25.00;17.33;;;0.90;99.90;;;;;;5117293;28;20175;-69
2023/01/18 01:31:13;;;;;;;24.50;17.03;;;1.00;99.90;;;;;;5117366;28;20168;-69
2023/01/18 01:33:39;;;;;;;28.80;16.97;;;1.00;99.90;;;;;;5117540;28;20194;-68
2023/01/18 01:36:16;;;;;;;24.90;15.70;;;1.00;99.90;;;;;;5117088;28;20171;-69
2023/01/18 01:38:42;;;;;;;24.33;16.27;;;1.00;99.90;;;;;;5117213;28;20246;-68
2023/01/18 01:41:24;;;;;;;26.40;15.87;;;1.00;99.90;;;;;;5117016;28;20270;-68
2023/01/18 01:43:50;;;;;;;24.17;14.50;;;1.00;99.90;;;;;;5117050;28;20213;-68
2023/01/18 01:46:29;;;;;;;26.43;16.00;;;0.90;99.90;;;;;;5115497;28;20607;-68
2023/01/18 01:49:06;;;;;;;26.47;14.97;;;0.90;99.90;;;;;;5116685;28;20531;-68
2023/01/18 01:51:34;;;;;;;24.13;15.00;;;1.00;99.90;;;;;;5115635;28;20171;-67
2023/01/18 01:54:05;;;;;;;24.40;15.30;;;0.90;99.90;;;;;;5116848;28;20178;-69
2023/01/18 01:56:31;;;;;;;20.77;14.13;;;0.80;99.90;;;;;;5116849;28;20283;-68
2023/01/18 01:59:00;;;;;;;25.40;15.37;;;0.80;99.90;;;;;;5115780;28;20183;-68
2023/01/18 02:01:27;;;;;;;21.30;15.00;;;0.80;99.90;;;;;;5116641;28;20240;-68
2023/01/18 02:03:56;;;;;;;32.43;15.50;;;0.90;99.90;;;;;;5116346;28;20164;-68
2023/01/18 02:06:30;;;;;;;25.43;16.07;;;0.80;99.90;;;;;;5116693;28;20186;-68
2023/01/18 02:09:04;;;;;;;22.70;15.20;;;0.90;99.90;;;;;;5116511;28;20179;-68
2023/01/18 02:11:30;;;;;;;22.03;15.40;;;0.90;99.90;;;;;;5116541;28;20173;-68
2023/01/18 02:14:00;;;;;;;24.27;15.60;;;0.90;99.90;;;;;;5116500;28;20174;-68
2023/01/18 02:16:48;;;;;;;27.03;14.30;;;0.80;99.90;;;;;;5115473;28;20597;-68
2023/01/18 02:19:30;;;;;;;21.80;14.03;;;0.80;99.90;;;;;;5115828;28;20163;-67
2023/01/18 02:22:07;;;;;;;21.83;13.87;;;0.90;99.90;;;;;;5116302;28;20259;-68
2023/01/18 02:24:39;;;;;;;20.37;13.70;;;0.80;99.90;;;;;;5115270;28;20171;-69
2023/01/18 02:27:42;;;;;;;24.13;13.60;;;0.80;99.90;;;;;;5116234;28;20634;-68
2023/01/18 02:30:13;;;;;;;22.43;13.00;;;0.80;99.90;;;;;;5116211;28;20197;-68
2023/01/18 02:33:08;;;;;;;20.93;13.60;;;0.80;99.90;;;;;;5116160;28;20163;-68
2023/01/18 02:35:55;;;;;;;22.23;13.17;;;0.90;99.90;;;;;;5115638;28;20175;-68
2023/01/18 02:38:40;;;;;;;19.63;13.83;;;0.80;99.90;;;;;;5116246;28;20185;-68
2023/01/18 02:47:09;;;;;;;20.43;12.90;;;0.70;99.90;;;;;;5116089;28;20205;-67
2023/01/18 02:49:34;;;;;;;23.80;13.80;;;0.80;99.90;;;;;;5115884;28;20197;-67
2023/01/18 02:52:05;;;;;;;20.27;13.13;;;0.70;99.90;;;;;;5115766;28;20167;-68
2023/01/18 02:54:35;;;;;;;21.47;13.70;;;0.70;99.90;;;;;;5116058;28;20175;-68
2023/01/18 02:57:06;;;;;;;19.83;13.97;;;0.80;99.90;;;;;;5115700;28;20175;-68
2023/01/18 02:59:38;;;;;;;19.70;13.80;;;0.80;99.90;;;;;;5115601;28;20186;-68
2023/01/18 03:02:12;;;;;;;20.70;13.63;;;0.80;99.90;;;;;;5115546;28;20199;-68
2023/01/18 03:04:55;;;;;;;19.30;13.83;;;0.80;99.90;;;;;;5115755;28;20255;-68
2023/01/18 03:07:34;;;;;;;22.20;14.23;;;0.80;99.90;;;;;;5115511;28;20167;-68
2023/01/18 03:10:02;;;;;;;20.73;13.70;;;0.70;99.90;;;;;;5114446;28;20189;-68
2023/01/18 03:12:45;;;;;;;20.87;13.03;;;0.70;99.90;;;;;;5115355;27;20209;-68
2023/01/18 03:15:19;;;;;;;24.83;13.47;;;0.80;99.90;;;;;;5115323;28;20167;-68
2023/01/18 03:17:56;;;;;;;19.43;13.93;;;0.70;99.90;;;;;;5115197;28;20649;-68
2023/01/18 03:20:27;;;;;;;22.03;14.17;;;0.60;99.90;;;;;;5115320;28;20184;-68
2023/01/18 03:25:54;;;;;;;20.33;13.03;;;0.50;99.90;;;;;;5115480;28;20178;-68
2023/01/18 03:35:09;;;;;;;23.23;14.57;;;0.50;99.90;;;;;;5032528;28;20684;-69
2023/01/18 03:37:41;;;;;;;19.90;13.73;;;0.50;99.90;;;;;;5032337;28;20205;-68
2023/01/18 03:40:09;;;;;;;21.20;14.20;;;0.40;99.90;;;;;;5032184;28;20232;-68
2023/01/18 03:42:49;;;;;;;21.37;14.33;;;0.50;99.90;;;;;;5031832;28;20679;-68
2023/01/18 03:45:31;;;;;;;28.17;15.00;;;0.40;99.90;;;;;;5031829;28;20212;-68
2023/01/18 03:47:57;;;;;;;23.63;14.13;;;0.40;99.90;;;;;;5031245;28;20225;-67
2023/01/18 03:50:28;;;;;;;24.33;14.87;;;0.40;99.90;;;;;;5031978;28;20263;-68
2023/01/18 03:53:00;;;;;;;25.70;15.83;;;0.30;99.90;;;;;;5031998;28;20171;-68
2023/01/18 03:55:39;;;;;;;27.13;15.70;;;0.30;99.90;;;;;;5032059;28;20187;-68
2023/01/18 03:58:10;;;;;;;21.87;14.87;;;0.30;99.90;;;;;;5031792;28;20538;-67
2023/01/18 04:00:37;;;;;;;23.60;15.87;;;0.30;99.90;;;;;;5031411;28;20189;-68
2023/01/18 04:03:03;;;;;;;26.20;15.50;;;0.30;99.90;;;;;;5031836;28;20221;-67
2023/01/18 04:05:30;;;;;;;25.40;16.47;;;0.20;99.90;;;;;;5031761;28;20788;-68
2023/01/18 04:07:56;;;;;;;29.37;16.67;;;0.10;99.90;;;;;;5015145;28;20215;-68
2023/01/18 04:10:21;;;;;;;29.60;16.70;;;0.20;99.90;;;;;;5080023;28;20179;-68
2023/01/18 04:12:47;;;;;;;21.33;15.93;;;0.20;99.90;;;;;;5114197;28;20181;-67
2023/01/18 04:15:12;;;;;;;32.53;17.07;;;0.20;99.90;;;;;;5113770;28;20176;-67
2023/01/18 04:17:38;;;;;;;29.27;17.73;;;0.10;99.90;;;;;;5114020;28;20178;-67
2023/01/18 04:20:05;;;;;;;29.90;18.53;;;0.00;99.90;;;;;;5113769;28;20178;-69
2023/01/18 04:22:30;;;;;;;28.37;17.80;;;0.10;99.90;;;;;;5113857;28;20221;-69
2023/01/18 04:24:56;;;;;;;29.30;17.43;;;0.00;99.90;;;;;;5112741;28;20181;-68
2023/01/18 04:27:23;;;;;;;28.10;17.57;;;0.00;99.90;;;;;;5112426;28;20178;-68
2023/01/18 04:29:49;;;;;;;32.53;19.33;;;0.00;99.90;;;;;;5113545;28;20197;-68
2023/01/18 04:32:15;;;;;;;26.77;18.63;;;0.00;99.90;;;;;;5113922;28;20521;-68
2023/01/18 04:34:40;;;;;;;28.87;18.43;;;0.00;99.90;;;;;;5113342;28;20174;-68
2023/01/18 04:37:06;;;;;;;25.60;18.60;;;0.00;99.90;;;;;;5113787;28;20626;-68
2023/01/18 04:39:32;;;;;;;28.10;18.50;;;0.00;99.90;;;;;;5113400;28;20305;-69
2023/01/18 04:41:57;;;;;;;30.47;18.67;;;0.10;99.90;;;;;;5113568;28;20295;-68
2023/01/18 04:44:23;;;;;;;30.47;18.47;;;0.00;99.90;;;;;;5113694;28;20174;-67
2023/01/18 04:46:49;;;;;;;29.73;18.10;;;0.00;99.90;;;;;;5113305;28;20758;-68
2023/01/18 04:49:16;;;;;;;33.50;18.80;;;0.10;99.90;;;;;;5113434;28;20166;-68
2023/01/18 04:51:43;;;;;;;33.17;18.67;;;0.10;99.90;;;;;;5112958;28;20174;-69
2023/01/18 04:54:10;;;;;;;33.40;18.40;;;0.10;99.90;;;;;;5113430;28;20178;-69
2023/01/18 04:56:35;;;;;;;28.90;19.13;;;0.10;99.90;;;;;;5113490;28;20179;-69
2023/01/18 04:59:01;;;;;;;28.67;19.33;;;0.10;99.90;;;;;;5115843;28;20189;-69
2023/01/18 05:01:28;;;;;;;25.73;19.47;;;0.00;99.90;;;;;;5117308;28;20216;-68
2023/01/18 05:03:55;;;;;;;30.47;19.40;;;0.00;99.90;;;;;;5117691;28;20178;-69
2023/01/18 05:06:21;;;;;;;28.27;19.27;;;0.10;99.90;;;;;;5115665;28;20531;-69
2023/01/18 05:08:47;;;;;;;29.73;18.87;;;0.10;99.90;;;;;;5117481;28;20231;-68
2023/01/18 05:11:19;;;;;;;28.40;19.03;;;0.00;99.90;;;;;;5117055;28;20197;-69
2023/01/18 05:13:45;;;;;;;30.27;17.90;;;0.10;99.90;;;;;;5117554;28;20635;-68
2023/01/18 05:16:17;;;;;;;30.17;18.00;;;0.00;99.90;;;;;;5117284;28;20170;-69
2023/01/18 05:18:43;;;;;;;24.77;17.87;;;0.10;99.90;;;;;;5117449;28;20262;-70
2023/01/18 05:21:09;;;;;;;29.17;17.93;;;0.10;99.90;;;;;;5117567;28;20245;-69
2023/01/18 05:23:35;;;;;;;26.47;18.63;;;0.00;99.90;;;;;;5116563;28;20643;-69
2023/01/18 05:26:02;;;;;;;29.53;17.63;;;0.10;99.90;;;;;;5116735;28;20167;-69
2023/01/18 05:28:27;;;;;;;28.63;18.87;;;0.10;99.90;;;;;;5117110;28;20637;-69
2023/01/18 05:30:55;;;;;;;23.97;17.53;;;0.10;99.90;;;;;;5116754;28;20271;-69
2023/01/18 05:33:22;;;;;;;29.50;18.43;;;0.20;99.90;;;;;;5116872;28;20529;-69
2023/01/18 05:35:49;;;;;;;29.73;17.83;;;0.10;99.90;;;;;;5117119;28;20696;-69
2023/01/18 05:38:15;;;;;;;24.63;17.53;;;0.20;99.90;;;;;;5116634;28;20171;-70
2023/01/18 05:40:43;;;;;;;26.73;17.20;;;0.20;99.90;;;;;;5116312;28;20170;-69
2023/01/18 05:43:09;;;;;;;23.63;16.67;;;0.20;99.90;;;;;;5117035;28;20227;-70
2023/01/18 05:45:34;;;;;;;26.97;18.07;;;0.30;99.90;;;;;;5116223;28;20218;-69
2023/01/18 05:48:00;;;;;;;27.27;17.17;;;0.20;99.90;;;;;;5115171;28;20181;-69
2023/01/18 05:50:25;;;;;;;26.90;17.17;;;0.20;99.90;;;;;;5116319;28;20177;-69
2023/01/18 05:52:51;;;;;;;29.10;16.63;;;0.20;99.90;;;;;;5114885;28;20236;-69
2023/01/18 05:55:17;;;;;;;28.83;17.23;;;0.30;99.90;;;;;;5116061;28;20239;-69
2023/01/18 05:57:43;;;;;;;31.23;16.93;;;0.30;99.90;;;;;;5114707;28;20618;-68
2023/01/18 06:00:10;;;;;;;25.37;17.13;;;0.30;99.90;;;;;;5116041;28;20187;-69
2023/01/18 06:02:35;;;;;;;27.67;17.67;;;0.30;99.90;;;;;;5116223;28;20242;-68
2023/01/18 06:05:01;;;;;;;25.93;16.60;;;0.40;99.90;;;;;;5116355;28;20683;-69
2023/01/18 06:07:26;;;;;;;27.13;17.47;;;0.30;99.90;;;;;;5115075;28;20182;-68
2023/01/18 06:09:52;;;;;;;25.00;16.33;;;0.20;99.90;;;;;;5114023;28;20180;-69
2023/01/18 06:12:17;;;;;;;24.13;16.17;;;0.20;99.90;;;;;;5114945;28;20171;-67
2023/01/18 06:14:43;;;;;;;25.90;17.23;;;0.30;99.90;;;;;;5115371;28;20172;-69
2023/01/18 06:17:09;;;;;;;26.27;16.70;;;0.20;99.90;;;;;;5114088;28;20171;-69
2023/01/18 06:19:35;;;;;;;26.17;17.33;;;0.20;99.90;;;;;;5115719;28;20649;-69
2023/01/18 06:22:00;;;;;;;26.00;16.70;;;0.20;99.90;;;;;;5115202;28;20244;-69
2023/01/18 06:24:26;;;;;;;26.13;16.80;;;0.10;99.90;;;;;;5115151;28;20198;-69
2023/01/18 06:26:51;;;;;;;23.23;16.23;;;0.10;99.90;;;;;;5115267;28;20195;-69
2023/01/18 06:29:17;;;;;;;23.33;16.53;;;0.10;99.90;;;;;;5115397;28;20166;-70
2023/01/18 06:31:43;;;;;;;26.17;16.60;;;0.10;99.90;;;;;;5113983;28;20276;-70
2023/01/18 06:34:08;;;;;;;27.13;16.73;;;0.10;99.90;;;;;;5115597;28;20228;-69
2023/01/18 06:36:36;;;;;;;25.83;17.13;;;0.00;99.90;;;;;;5113254;28;20179;-70
2023/01/18 06:39:02;;;;;;;24.27;16.67;;;0.10;99.90;;;;;;5114597;28;20638;-69
2023/01/18 06:41:28;;;;;;;25.93;16.60;;;0.10;99.90;;;;;;5114572;28;20277;-68
2023/01/18 06:43:54;;;;;;;26.43;16.57;;;0.20;99.90;;;;;;5113870;28;20570;-70
2023/01/18 06:46:19;;;;;;;27.93;16.53;;;0.20;99.90;;;;;;5114769;28;20226;-69
2023/01/18 06:48:45;;;;;;;26.77;16.93;;;0.30;99.90;;;;;;5114720;28;20269;-70
2023/01/18 06:51:11;;;;;;;27.20;16.80;;;0.20;99.90;;;;;;5114819;28;20175;-71
2023/01/18 06:53:37;;;;;;;27.10;16.40;;;0.20;99.90;;;;;;5114524;28;20626;-69
2023/01/18 06:56:03;;;;;;;28.93;17.50;;;0.20;99.90;;;;;;5113043;28;20167;-70
2023/01/18 06:58:31;;;;;;;27.13;17.13;;;0.20;99.90;;;;;;5114421;28;20178;-70
2023/01/18 07:00:58;;;;;;;25.70;16.87;;;0.20;99.90;;;;;;5114331;27;20188;-70
2023/01/18 07:03:25;;;;;;;28.93;17.07;;;0.30;99.90;;;;;;5114520;27;20510;-70
2023/01/18 07:05:55;;;;;;;27.57;17.00;;;0.20;99.90;;;;;;5114163;28;20172;-69
2023/01/18 07:08:22;;;;;;;27.20;18.47;;;0.20;99.90;;;;;;5113607;28;20172;-70
2023/01/18 07:10:48;;;;;;;29.37;17.93;;;0.30;99.90;;;;;;5112735;28;20206;-71
2023/01/18 07:13:14;;;;;;;29.80;17.57;;;0.20;99.90;;;;;;5114148;28;20162;-70
2023/01/18 07:15:40;;;;;;;23.33;17.43;;;0.30;99.90;;;;;;5114429;28;20219;-70
2023/01/18 07:18:06;;;;;;;25.97;17.77;;;0.30;99.90;;;;;;5096706;28;20661;-70
2023/01/18 07:20:31;;;;;;;28.47;17.67;;;0.30;99.90;;;;;;5079853;28;20184;-70
2023/01/18 07:22:57;;;;;;;22.93;15.97;;;0.30;99.90;;;;;;5072705;28;20309;-69
2023/01/18 07:25:23;;;;;;;27.93;17.47;;;0.30;99.90;;;;;;5071104;28;20588;-69
2023/01/18 07:27:49;;;;;;;28.47;18.07;;;0.40;99.90;;;;;;5073175;28;20328;-69
2023/01/18 07:30:16;;;;;;;27.33;17.23;;;0.40;99.90;;;;;;5080771;28;20171;-69
2023/01/18 07:32:50;;;;;;;30.20;18.83;;;0.50;99.90;;;;;;5093151;28;20184;-69
2023/01/18 07:35:20;;;;;;;24.27;17.47;;;0.50;99.90;;;;;;5091332;28;20187;-69
2023/01/18 07:37:51;;;;;;;30.00;18.00;;;0.50;99.90;;;;;;5092291;28;20375;-68
2023/01/18 07:40:19;;;;;;;30.67;17.17;;;0.40;99.90;;;;;;5093226;28;20175;-70
2023/01/18 07:42:45;;;;;;;26.87;17.77;;;0.50;99.90;;;;;;5093603;28;20256;-68
2023/01/18 07:45:12;;;;;;;28.90;17.67;;;0.50;99.90;;;;;;5092572;28;20254;-69
2023/01/18 07:47:42;;;;;;;27.57;18.13;;;0.50;99.90;;;;;;5092790;28;20229;-68
2023/01/18 07:50:08;;;;;;;26.47;17.00;;;0.50;99.90;;;;;;5093065;28;20160;-69
2023/01/18 07:52:34;;;;;;;27.80;17.30;;;0.60;99.90;;;;;;5092535;28;20244;-67
2023/01/18 07:55:00;;;;;;;24.73;16.80;;;0.60;99.90;;;;;;5083638;28;20722;-68
2023/01/18 07:57:25;;;;;;;27.40;17.20;;;0.70;99.90;;;;;;5086516;28;20179;-67
2023/01/18 07:59:51;;;;;;;27.27;17.10;;;0.60;99.90;;;;;;5077505;28;20227;-69
2023/01/18 08:02:17;;;;;;;28.73;18.00;;;0.70;99.90;;;;;;5080663;28;20243;-70
2023/01/18 08:04:44;;;;;;;27.97;17.03;;;0.70;99.90;;;;;;5071914;28;20189;-69
2023/01/18 08:07:09;;;;;;;27.43;17.53;;;0.70;99.90;;;;;;5097386;28;20247;-68
2023/01/18 08:09:35;;;;;;;24.53;17.03;;;0.70;99.90;;;;;;5085541;28;20632;-67
2023/01/18 08:12:01;;;;;;;29.17;17.50;;;0.80;99.90;;;;;;5073394;28;20179;-68
2023/01/18 08:14:27;;;;;;;27.40;17.13;;;0.90;99.90;;;;;;5092712;28;20179;-68
2023/01/18 08:16:52;;;;;;;25.03;16.07;;;1.00;99.90;;;;;;5081480;28;20233;-68
2023/01/18 08:19:18;;;;;;;31.60;17.23;;;1.00;99.90;;;;;;5072723;28;20253;-68
2023/01/18 08:21:44;;;;;;;26.00;16.97;;;1.10;99.90;;;;;;5090349;28;20218;-70
2023/01/18 08:24:12;;;;;;;27.90;16.77;;;1.20;99.90;;;;;;5092597;28;20225;-65
2023/01/18 08:26:38;;;;;;;26.27;17.13;;;1.40;99.90;;;;;;5083913;28;20185;-67
2023/01/18 08:29:03;;;;;;;25.90;17.00;;;1.40;99.90;;;;;;5072357;28;20587;-69
2023/01/18 08:31:29;;;;;;;27.80;17.67;;;1.50;99.90;;;;;;5072511;28;20207;-68
2023/01/18 08:33:55;;;;;;;25.00;15.93;;;1.50;99.90;;;;;;5071519;28;20206;-68
2023/01/18 08:36:23;;;;;;;32.37;18.07;;;1.60;99.90;;;;;;5071523;28;20173;-67
2023/01/18 08:38:52;;;;;;;28.77;18.27;;;1.80;99.90;;;;;;5081200;28;20183;-67
2023/01/18 08:41:19;;;;;;;28.77;17.37;;;1.80;99.90;;;;;;5077814;28;20195;-68
2023/01/18 08:43:49;;;;;;;31.23;17.07;;;1.90;99.90;;;;;;5082979;28;20184;-67
2023/01/18 08:46:15;;;;;;;24.83;16.90;;;2.00;99.90;;;;;;5080714;28;20232;-68
2023/01/18 08:48:40;;;;;;;28.00;16.40;;;2.20;99.90;;;;;;5071433;28;20180;-66
2023/01/18 08:51:06;;;;;;;23.93;15.23;;;2.80;99.90;;;;;;5071474;28;20527;-67
2023/01/18 08:53:32;;;;;;;25.27;15.00;;;3.30;99.90;;;;;;5083698;28;20180;-69
2023/01/18 08:55:57;;;;;;;21.13;14.23;;;4.00;99.90;;;;;;5083518;28;20172;-70
2023/01/18 08:58:23;;;;;;;22.80;13.73;;;4.10;99.90;;;;;;5081671;28;20566;-74
2023/01/18 09:00:49;;;;;;;19.67;14.63;;;3.60;99.90;;;;;;5091489;28;20602;-72
2023/01/18 09:03:19;;;;;;;20.60;14.40;;;3.50;99.90;;;;;;5091321;28;20240;-72
2023/01/18 09:05:44;;;;;;;21.57;14.30;;;3.60;99.90;;;;;;5088021;28;20164;-74
2023/01/18 09:08:10;;;;;;;22.80;14.70;;;3.80;99.90;;;;;;5070381;28;20686;-73
2023/01/18 09:10:37;;;;;;;21.47;14.00;;;4.30;99.90;;;;;;5078327;28;20554;-73
2023/01/18 09:13:04;;;;;;;22.53;14.67;;;4.90;99.90;;;;;;5092088;28;20188;-73
2023/01/18 09:15:30;;;;;;;17.27;12.73;;;5.50;99.90;;;;;;5092468;28;20631;-72
2023/01/18 09:17:57;;;;;;;18.93;12.43;;;6.30;99.90;;;;;;5091716;28;20218;-74
2023/01/18 09:20:24;;;;;;;18.43;12.93;;;6.80;99.90;;;;;;5085574;28;20226;-74
2023/01/18 09:22:49;;;;;;;18.70;12.53;;;6.10;99.90;;;;;;5071700;28;20742;-74
2023/01/18 09:25:17;;;;;;;20.50;13.57;;;5.90;99.90;;;;;;5081905;28;20290;-72
2023/01/18 09:27:43;;;;;;;18.83;13.27;;;5.60;99.90;;;;;;5084894;28;20172;-72
2023/01/18 09:30:10;;;;;;;21.10;13.43;;;5.20;99.90;;;;;;5085862;28;20175;-73
2023/01/18 09:32:35;;;;;;;21.83;13.93;;;4.80;99.90;;;;;;5089652;28;20188;-73
2023/01/18 09:35:02;;;;;;;21.30;13.47;;;4.30;99.90;;;;;;5092004;28;20638;-73
2023/01/18 09:37:28;;;;;;;21.13;13.87;;;3.80;99.90;;;;;;5078483;28;20180;-71
2023/01/18 09:39:54;;;;;;;16.70;12.93;;;3.60;99.90;;;;;;5090017;28;20195;-72
2023/01/18 09:42:35;;;;;;;22.40;12.57;;;3.70;99.90;;;;;;5076007;28;20670;-71
2023/01/18 09:45:02;;;;;;;23.00;14.50;;;4.00;99.90;;;;;;5072543;28;20179;-72
2023/01/18 09:47:42;;;;;;;22.00;12.83;;;4.30;99.90;;;;;;5090040;28;20180;-72
2023/01/18 09:50:19;;;;;;;20.73;11.87;;;4.90;99.90;;;;;;5085699;28;20203;-71
2023/01/18 09:53:11;;;;;;;14.30;11.40;;;5.70;99.90;;;;;;5089281;28;20191;-73
2023/01/18 09:55:39;;;;;;;17.40;12.50;;;6.30;99.90;;;;;;5074257;28;20203;-73
2023/01/18 09:58:16;;;;;;;17.67;11.50;;;7.00;99.90;;;;;;5073423;28;20188;-73
2023/01/18 10:00:46;;;;;;;15.30;11.13;;;7.60;99.90;;;;;;5075220;28;20180;-71
2023/01/18 10:03:32;;;;;;;17.43;11.50;;;8.20;99.90;;;;;;5074999;28;20211;-73
2023/01/18 10:06:08;;;;;;;14.07;11.13;;;9.00;99.10;;;;;;5078393;28;20176;-71
2023/01/18 10:08:59;;;;;;;14.07;10.17;;;9.30;98.10;;;;;;5079343;28;20184;-73
2023/01/18 10:11:30;;;;;;;14.07;10.00;;;9.00;99.20;;;;;;5074220;28;20176;-73
2023/01/18 10:14:04;;;;;;;15.93;10.73;;;9.50;97.30;;;;;;5092101;28;20180;-73
2023/01/18 10:16:32;;;;;;;14.97;10.77;;;10.00;96.10;;;;;;5092480;28;20180;-74
2023/01/18 10:18:57;;;;;;;16.37;10.73;;;10.40;95.70;;;;;;5089016;28;20176;-73
2023/01/18 10:21:50;;;;;;;14.90;10.50;;;10.00;95.50;;;;;;5073705;28;20204;-74
2023/01/18 10:24:21;;;;;;;18.77;10.20;;;10.30;95.60;;;;;;5074694;28;20726;-74
2023/01/18 10:26:51;;;;;;;12.30;9.50;;;10.80;94.40;;;;;;5091353;28;20258;-74
2023/01/18 10:29:25;;;;;;;10.93;9.47;;;10.70;92.50;;;;;;5094620;28;20631;-72
2023/01/18 10:31:56;;;;;;;13.23;10.10;;;10.80;94.20;;;;;;5093366;28;20286;-73
2023/01/18 10:34:27;;;;;;;13.80;9.97;;;10.30;93.60;;;;;;5095163;28;20164;-74
2023/01/18 10:37:04;;;;;;;13.70;9.30;;;11.00;94.10;;;;;;5075675;28;20176;-74
2023/01/18 10:39:59;;;;;;;11.20;9.20;;;11.60;92.00;;;;;;5074809;28;20191;-75
2023/01/18 10:42:42;;;;;;;13.30;9.30;;;11.60;1.00;;;;;;5073468;28;20274;-74
2023/01/18 10:45:18;;;;;;;10.90;8.67;;;11.50;99.90;;;;;;5073265;28;20263;-73
2023/01/18 10:47:43;;;;;;;11.63;9.00;;;11.10;92.00;;;;;;5086513;28;20186;-75
2023/01/18 10:50:18;;;;;;;14.63;9.30;;;11.10;92.90;;;;;;5083503;28;20539;-73
2023/01/18 10:52:44;;;;;;;12.27;8.80;;;11.50;91.60;;;;;;5085030;28;20198;-74
2023/01/18 10:55:18;;;;;;;9.43;8.00;;;11.80;99.90;;;;;;5082012;28;20638;-76
2023/01/18 10:57:50;;;;;;;10.23;8.03;;;11.80;91.30;;;;;;5088203;28;20207;-74
2023/01/18 11:00:21;;;;;;;9.63;8.00;;;11.50;99.90;;;;;;5076755;28;20651;-74
2023/01/18 11:02:49;;;;;;;10.03;7.57;;;11.40;91.50;;;;;;5083435;28;20705;-74
2023/01/18 11:05:31;;;;;;;10.67;8.17;;;11.10;91.20;;;;;;5091916;28;20211;-73
2023/01/18 11:08:30;;;;;;;13.03;9.20;;;11.10;91.70;;;;;;5083883;28;20174;-74
2023/01/18 11:14:32;;;;;;;10.77;7.67;;;10.90;91.90;;;;;;5073312;28;20252;-72
2023/01/18 11:17:10;;;;;;;8.00;7.17;;;11.10;92.70;;;;;;5089897;28;20643;-74
2023/01/18 11:19:36;;;;;;;11.40;8.50;;;11.10;92.20;;;;;;5087490;28;20459;-74
2023/01/18 11:22:02;;;;;;;11.03;7.87;;;11.60;91.60;;;;;;5092901;28;20590;-75
2023/01/18 11:24:30;;;;;;;9.47;6.93;;;11.60;90.60;;;;;;5093074;28;20221;-74
2023/01/18 11:26:57;;;;;;;9.63;7.10;;;11.10;90.80;;;;;;5092726;28;20164;-72
2023/01/18 11:29:28;;;;;;;11.00;7.80;;;10.30;92.90;;;;;;5092436;28;20164;-72
2023/01/18 11:31:54;;;;;;;11.33;8.43;;;10.40;94.30;;;;;;5094023;28;20168;-73
2023/01/18 11:34:31;;;;;;;10.07;7.73;;;10.10;94.90;;;;;;5093198;28;20255;-73
2023/01/18 11:36:59;;;;;;;7.80;6.90;;;10.20;94.80;;;;;;5094025;28;20175;-72
2023/01/18 11:39:34;;;;;;;13.30;10.40;;;10.20;94.70;;;;;;5093644;28;20172;-71
2023/01/18 11:42:23;;;;;;;9.37;7.33;;;10.00;94.40;;;;;;5093013;28;20706;-71
2023/01/18 11:44:52;;;;;;;11.07;8.57;;;10.00;95.20;;;;;;5092819;28;20183;-71
2023/01/18 11:48:15;;;;;;;21.33;13.90;;;9.70;96.60;;;;;;5093623;28;20191;-71
2023/01/18 11:50:55;;;;;;;8.83;7.33;;;10.10;95.70;;;;;;5012275;28;20173;-71
2023/01/18 11:53:42;;;;;;;91.57;81.70;;;10.00;95.70;;;;;;4991737;28;20171;-71
2023/01/18 11:56:19;;;;;;;10.70;9.13;;;10.00;95.50;;;;;;5059273;28;20269;-72
2023/01/18 11:58:45;;;;;;;18.43;16.30;;;10.10;95.80;;;;;;5072182;28;20192;-73
2023/01/18 12:01:29;;;;;;;11.13;8.63;;;10.20;95.30;;;;;;5073062;28;20172;-73
2023/01/18 12:04:08;;;;;;;9.47;6.80;;;9.80;96.10;;;;;;5072234;28;20171;-72
2023/01/18 12:06:40;;;;;;;9.53;7.03;;;9.50;96.80;;;;;;5071610;28;20168;-72
2023/01/18 12:09:23;;;;;;;12.47;7.27;;;9.10;98.50;;;;;;5071625;28;20172;-70
2023/01/18 12:11:58;;;;;;;11.20;7.20;;;9.20;98.60;;;;;;5072190;28;20168;-72
2023/01/18 12:14:48;;;;;;;9.17;7.10;;;8.70;99.90;;;;;;5070893;28;20172;-71
2023/01/18 12:17:48;;;;;;;10.10;6.90;;;9.00;99.20;;;;;;5071160;28;20169;-70
2023/01/18 12:20:25;;;;;;;10.53;7.63;;;9.00;99.10;;;;;;5031046;28;20184;-71
2023/01/18 12:23:28;;;;;;;12.93;8.73;;;8.90;99.80;;;;;;5077883;28;20720;-71
2023/01/18 12:26:08;;;;;;;10.00;6.90;;;8.90;98.50;;;;;;5092975;28;20251;-71
2023/01/18 12:28:56;;;;;;;8.90;6.23;;;9.00;98.90;;;;;;5092183;28;20176;-70
2023/01/18 12:32:05;;;;;;;6.97;5.97;;;8.30;99.80;;;;;;5092137;28;20274;-73
2023/01/18 12:34:40;;;;;;;8.83;6.20;;;7.80;99.90;;;;;;5092520;28;20159;-72
2023/01/18 12:37:38;;;;;;;16.10;13.47;;;7.40;99.90;;;;;;5092335;28;20169;-70
2023/01/18 12:40:25;;;;;;;11.67;7.03;;;7.30;99.90;;;;;;5092004;28;20266;-71
2023/01/18 12:43:14;;;;;;;6.67;5.93;;;7.20;99.90;;;;;;5091682;28;20199;-72
2023/01/18 12:45:52;;;;;;;9.67;7.27;;;7.20;99.90;;;;;;5076782;28;20807;-71
2023/01/18 12:48:39;;;;;;;7.03;6.10;;;6.80;99.90;;;;;;5102831;28;20245;-72
2023/01/18 12:51:13;;;;;;;13.30;6.53;;;6.70;99.90;;;;;;5095458;28;20214;-71
2023/01/18 12:53:46;;;;;;;11.20;8.37;;;6.70;99.90;;;;;;5106408;28;20176;-72
2023/01/18 12:56:23;;;;;;;19.00;7.83;;;6.60;99.90;;;;;;5090276;28;20221;-73
2023/01/18 12:58:55;;;;;;;15.63;11.83;;;6.40;99.90;;;;;;5106723;28;20273;-70
2023/01/18 13:01:28;;;;;;;15.23;12.40;;;6.20;99.90;;;;;;5095557;28;20198;-72
2023/01/18 13:04:00;;;;;;;18.00;11.57;;;6.10;99.90;;;;;;5104012;28;20199;-73
2023/01/18 13:06:27;;;;;;;9.40;6.77;;;6.10;99.90;;;;;;5104607;28;20175;-71
2023/01/18 13:09:08;;;;;;;12.30;7.43;;;6.00;99.90;;;;;;5095780;28;20658;-71
2023/01/18 13:11:40;;;;;;;11.93;7.83;;;6.00;99.90;;;;;;5081315;28;20167;-72
2023/01/18 13:14:36;;;;;;;11.37;7.83;;;6.00;99.90;;;;;;5102444;28;20193;-72
2023/01/18 13:17:14;;;;;;;10.70;7.57;;;5.90;99.90;;;;;;5108295;28;20533;-72
2023/01/18 13:19:53;;;;;;;11.93;7.10;;;6.00;99.90;;;;;;5098569;28;20262;-73
2023/01/18 13:22:39;;;;;;;13.43;7.50;;;6.00;99.90;;;;;;5104990;28;20683;-74
2023/01/18 13:25:28;;;;;;;11.47;7.53;;;6.00;99.90;;;;;;5111641;28;20301;-73
2023/01/18 13:28:02;;;;;;;10.00;7.20;;;5.80;99.90;;;;;;5094557;28;20168;-73
2023/01/18 13:30:57;;;;;;;12.03;7.60;;;5.60;99.90;;;;;;5108596;28;20221;-73
2023/01/18 13:33:30;;;;;;;10.07;7.30;;;5.60;99.90;;;;;;5098877;28;20166;-73
2023/01/18 13:36:02;;;;;;;11.87;8.17;;;5.60;99.90;;;;;;5107788;28;20183;-72